createdAt,value
2023-04-07T00:00:14.448Z,977.61
2023-04-07T00:00:45.053Z,977.61
2023-04-07T00:01:01.810Z,977.72
2023-04-07T00:01:45.107Z,977.72
2023-04-07T00:02:17.534Z,977.61
2023-04-07T00:02:49.051Z,977.61
2023-04-07T00:03:21.125Z,977.61
2023-04-07T00:03:53.261Z,977.61
2023-04-07T00:04:25.181Z,977.61
2023-04-07T00:04:56.996Z,977.61
2023-04-07T00:05:29.215Z,977.82
2023-04-07T00:06:01.015Z,977.92
2023-04-07T00:06:32.880Z,977.92
2023-04-07T00:07:04.930Z,977.61
2023-04-07T00:07:42.206Z,977.61
2023-04-07T00:08:08.943Z,977.82
2023-04-07T00:08:40.897Z,977.82
2023-04-07T00:09:12.641Z,977.41
2023-04-07T00:09:44.641Z,977.41
2023-04-07T00:10:01.931Z,977.72
2023-04-07T00:10:32.692Z,977.72
2023-04-07T00:10:49.079Z,977.72
2023-04-07T00:11:20.755Z,977.72
2023-04-07T00:11:52.532Z,977.72
2023-04-07T00:12:24.528Z,977.61
2023-04-07T00:12:56.658Z,977.61
2023-04-07T00:13:29.573Z,977.72
2023-04-07T00:14:00.631Z,977.72
2023-04-07T00:14:16.716Z,977.72
2023-04-07T00:14:48.391Z,977.72
2023-04-07T00:15:33.051Z,977.61
2023-04-07T00:16:04.769Z,977.72
2023-04-07T00:16:36.360Z,977.72
2023-04-07T00:17:08.573Z,977.72
2023-04-07T00:17:40.571Z,977.72
2023-04-07T00:18:12.264Z,977.51
2023-04-07T00:18:44.383Z,977.51
2023-04-07T00:19:00.585Z,977.72
2023-04-07T00:19:44.398Z,977.72
2023-04-07T00:20:16.609Z,977.51
2023-04-07T00:20:48.158Z,977.51
2023-04-07T00:21:20.239Z,977.61
2023-04-07T00:21:52.287Z,977.61
2023-04-07T00:22:24.336Z,977.41
2023-04-07T00:22:56.212Z,977.41
2023-04-07T00:23:28.050Z,977.51
2023-04-07T00:24:00.174Z,977.51
2023-04-07T00:24:34.657Z,977.61
2023-04-07T00:25:04.634Z,977.72
2023-04-07T00:25:36.052Z,977.72
2023-04-07T00:26:08.016Z,977.41
2023-04-07T00:26:40.123Z,977.41
2023-04-07T00:27:11.942Z,977.51
2023-04-07T00:27:43.893Z,977.51
2023-04-07T00:28:00.189Z,977.51
2023-04-07T00:28:31.942Z,977.72
2023-04-07T00:28:48.007Z,977.72
2023-04-07T00:29:19.855Z,977.61
2023-04-07T00:29:51.827Z,977.61
2023-04-07T00:30:24.255Z,977.72
2023-04-07T00:30:56.008Z,977.72
2023-04-07T00:31:27.708Z,977.31
2023-04-07T00:32:00.001Z,977.31
2023-04-07T00:32:15.965Z,977.51
2023-04-07T00:32:47.879Z,977.51
2023-04-07T00:33:31.855Z,977.41
2023-04-07T00:34:03.817Z,977.41
2023-04-07T00:34:35.687Z,977.41
2023-04-07T00:35:08.243Z,977.41
2023-04-07T00:35:39.648Z,977.41
2023-04-07T00:36:11.619Z,977.41
2023-04-07T00:36:43.590Z,977.41
2023-04-07T00:36:59.816Z,977.41
2023-04-07T00:37:43.540Z,977.41
2023-04-07T00:38:15.633Z,977.41
2023-04-07T00:38:47.505Z,977.41
2023-04-07T00:39:19.610Z,977.51
2023-04-07T00:39:51.497Z,977.51
2023-04-07T00:40:23.736Z,977.61
2023-04-07T00:40:55.312Z,977.61
2023-04-07T00:41:27.324Z,977.31
2023-04-07T00:41:59.612Z,977.31
2023-04-07T00:42:31.524Z,977.21
2023-04-07T00:43:03.693Z,977.21
2023-04-07T00:43:35.300Z,977.21
2023-04-07T00:44:07.358Z,977.41
2023-04-07T00:44:39.451Z,977.41
2023-04-07T00:45:12.426Z,977.14
2023-04-07T00:45:43.223Z,977.14
2023-04-07T00:46:15.401Z,977.41
2023-04-07T00:46:47.478Z,977.41
2023-04-07T00:47:19.015Z,977.41
2023-04-07T00:47:51.244Z,977.41
2023-04-07T00:48:23.102Z,977.31
2023-04-07T00:48:55.098Z,977.31
2023-04-07T00:49:27.117Z,977.31
2023-04-07T00:49:59.054Z,977.31
2023-04-07T00:50:15.556Z,977.21
2023-04-07T00:50:47.009Z,977.21
2023-04-07T00:51:31.168Z,977.31
2023-04-07T00:52:03.529Z,977.31
2023-04-07T00:52:34.871Z,977.31
2023-04-07T00:53:06.916Z,977.21
2023-04-07T00:53:39.184Z,977.21
2023-04-07T00:54:10.926Z,977.14
2023-04-07T00:54:42.796Z,977.14
2023-04-07T00:55:15.197Z,977.21
2023-04-07T00:55:47.026Z,977.21
2023-04-07T00:56:18.721Z,977.21
2023-04-07T00:56:50.996Z,977.21
2023-04-07T00:57:23.020Z,977.04
2023-04-07T00:57:54.876Z,977.04
2023-04-07T00:58:26.738Z,977.31
2023-04-07T00:58:58.717Z,977.31
2023-04-07T00:59:14.829Z,977.21
2023-04-07T00:59:58.889Z,977.21
2023-04-07T01:00:31.397Z,977.14
2023-04-07T01:01:03.210Z,977.21
2023-04-07T01:01:34.715Z,977.21
2023-04-07T01:02:06.725Z,976.94
2023-04-07T01:02:38.983Z,976.94
2023-04-07T01:03:10.817Z,977.04
2023-04-07T01:03:42.878Z,977.04
2023-04-07T01:04:14.768Z,976.94
2023-04-07T01:04:46.639Z,976.94
2023-04-07T01:05:18.882Z,977.04
2023-04-07T01:05:50.538Z,977.04
2023-04-07T01:06:22.448Z,977.14
2023-04-07T01:06:54.537Z,977.14
2023-04-07T01:07:26.380Z,977.04
2023-04-07T01:07:58.271Z,977.04
2023-04-07T01:08:30.678Z,977.04
2023-04-07T01:09:03.175Z,977.14
2023-04-07T01:09:34.146Z,977.14
2023-04-07T01:10:06.705Z,977.04
2023-04-07T01:10:38.306Z,977.04
2023-04-07T01:11:10.497Z,976.84
2023-04-07T01:11:42.332Z,976.84
2023-04-07T01:12:14.282Z,977.04
2023-04-07T01:12:30.639Z,977.04
2023-04-07T01:13:03.035Z,977.04
2023-04-07T01:13:46.156Z,977.04
2023-04-07T01:14:18.083Z,976.73
2023-04-07T01:14:50.044Z,976.73
2023-04-07T01:15:22.329Z,976.84
2023-04-07T01:15:54.065Z,976.84
2023-04-07T01:16:25.936Z,976.73
2023-04-07T01:16:57.968Z,976.73
2023-04-07T01:17:14.091Z,977.04
2023-04-07T01:17:58.007Z,977.04
2023-04-07T01:18:30.327Z,976.94
2023-04-07T01:19:02.589Z,976.73
2023-04-07T01:19:33.812Z,976.73
2023-04-07T01:20:06.184Z,977.04
2023-04-07T01:20:38.005Z,977.04
2023-04-07T01:21:09.743Z,977.04
2023-04-07T01:21:41.765Z,977.04
2023-04-07T01:22:13.765Z,976.84
2023-04-07T01:22:45.733Z,976.84
2023-04-07T01:23:17.770Z,976.84
2023-04-07T01:23:49.497Z,976.84
2023-04-07T01:24:21.785Z,976.84
2023-04-07T01:24:53.762Z,976.84
2023-04-07T01:25:25.696Z,976.84
2023-04-07T01:25:57.656Z,976.84
2023-04-07T01:26:29.837Z,977.04
2023-04-07T01:27:02.085Z,976.84
2023-04-07T01:27:33.422Z,976.84
2023-04-07T01:28:05.509Z,976.84
2023-04-07T01:28:37.869Z,976.84
2023-04-07T01:29:09.550Z,976.73
2023-04-07T01:29:41.615Z,976.73
2023-04-07T01:29:57.575Z,976.73
2023-04-07T01:30:41.729Z,977.04
2023-04-07T01:31:13.290Z,976.94
2023-04-07T01:31:45.454Z,976.94
2023-04-07T01:32:17.410Z,976.84
2023-04-07T01:32:49.183Z,976.84
2023-04-07T01:33:21.348Z,976.63
2023-04-07T01:33:53.400Z,976.63
2023-04-07T01:34:25.019Z,976.84
2023-04-07T01:34:57.157Z,976.84
2023-04-07T01:35:13.463Z,977.04
2023-04-07T01:35:57.430Z,977.04
2023-04-07T01:36:29.393Z,976.73
2023-04-07T01:37:01.156Z,976.73
2023-04-07T01:37:33.074Z,976.73
2023-04-07T01:38:05.114Z,976.63
2023-04-07T01:38:37.126Z,976.63
2023-04-07T01:39:08.986Z,976.63
2023-04-07T01:39:41.065Z,976.63
2023-04-07T01:40:13.259Z,976.73
2023-04-07T01:40:45.046Z,976.73
2023-04-07T01:41:17.233Z,976.73
2023-04-07T01:41:48.860Z,976.73
2023-04-07T01:42:20.844Z,976.84
2023-04-07T01:42:52.820Z,976.84
2023-04-07T01:43:24.838Z,976.84
2023-04-07T01:43:56.950Z,976.84
2023-04-07T01:44:28.788Z,976.63
2023-04-07T01:45:02.843Z,976.73
2023-04-07T01:45:32.753Z,976.73
2023-04-07T01:46:04.653Z,976.94
2023-04-07T01:46:36.760Z,976.94
2023-04-07T01:47:09.053Z,976.63
2023-04-07T01:47:40.572Z,976.63
2023-04-07T01:48:12.819Z,976.63
2023-04-07T01:48:44.633Z,976.63
2023-04-07T01:49:16.641Z,976.73
2023-04-07T01:49:48.774Z,976.73
2023-04-07T01:50:20.775Z,976.73
2023-04-07T01:50:52.551Z,976.73
2023-04-07T01:51:24.569Z,976.73
2023-04-07T01:51:56.515Z,976.73
2023-04-07T01:52:12.627Z,976.63
2023-04-07T01:52:56.471Z,976.63
2023-04-07T01:53:28.410Z,976.73
2023-04-07T01:54:00.430Z,976.73
2023-04-07T01:54:32.354Z,976.73
2023-04-07T01:55:04.794Z,976.73
2023-04-07T01:55:36.346Z,976.73
2023-04-07T01:56:08.154Z,976.53
2023-04-07T01:56:40.264Z,976.53
2023-04-07T01:57:12.234Z,976.53
2023-04-07T01:57:44.336Z,976.53
2023-04-07T01:58:16.234Z,976.53
2023-04-07T01:58:48.344Z,976.53
2023-04-07T01:59:20.238Z,976.84
2023-04-07T01:59:52.202Z,976.84
2023-04-07T02:00:24.467Z,976.63
2023-04-07T02:00:56.097Z,976.63
2023-04-07T02:01:12.263Z,976.63
2023-04-07T02:01:44.289Z,976.63
2023-04-07T02:02:28.220Z,976.63
2023-04-07T02:03:00.098Z,976.63
2023-04-07T02:03:16.379Z,976.33
2023-04-07T02:03:48.147Z,976.33
2023-04-07T02:04:31.998Z,976.63
2023-04-07T02:05:04.853Z,976.63
2023-04-07T02:05:35.873Z,976.63
2023-04-07T02:06:07.923Z,976.53
2023-04-07T02:06:39.981Z,976.53
2023-04-07T02:07:11.950Z,976.53
2023-04-07T02:07:43.701Z,976.53
2023-04-07T02:08:15.831Z,976.43
2023-04-07T02:08:47.884Z,976.43
2023-04-07T02:09:19.840Z,976.73
2023-04-07T02:09:51.740Z,976.73
2023-04-07T02:10:23.987Z,976.63
2023-04-07T02:10:55.714Z,976.63
2023-04-07T02:11:27.875Z,976.53
2023-04-07T02:11:59.861Z,976.53
2023-04-07T02:12:31.583Z,976.43
2023-04-07T02:13:04.241Z,976.63
2023-04-07T02:13:35.661Z,976.63
2023-04-07T02:14:07.438Z,976.73
2023-04-07T02:14:39.625Z,976.73
2023-04-07T02:15:13.098Z,976.33
2023-04-07T02:15:43.485Z,976.33
2023-04-07T02:16:15.440Z,976.53
2023-04-07T02:16:49.019Z,976.53
2023-04-07T02:17:19.435Z,976.84
2023-04-07T02:17:51.509Z,976.84
2023-04-07T02:18:23.278Z,976.43
2023-04-07T02:18:55.346Z,976.43
2023-04-07T02:19:27.620Z,976.53
2023-04-07T02:19:59.610Z,976.53
2023-04-07T02:20:31.550Z,976.33
2023-04-07T02:21:03.774Z,976.33
2023-04-07T02:21:35.205Z,976.33
2023-04-07T02:22:07.273Z,976.43
2023-04-07T02:22:39.152Z,976.43
2023-04-07T02:22:55.284Z,976.43
2023-04-07T02:23:39.206Z,976.73
2023-04-07T02:24:11.111Z,976.53
2023-04-07T02:24:43.147Z,976.53
2023-04-07T02:25:15.258Z,976.53
2023-04-07T02:25:47.030Z,976.53
2023-04-07T02:26:19.117Z,976.53
2023-04-07T02:26:51.082Z,976.53
2023-04-07T02:27:22.916Z,976.53
2023-04-07T02:27:54.999Z,976.53
2023-04-07T02:28:27.142Z,976.43
2023-04-07T02:28:58.931Z,976.43
2023-04-07T02:29:31.104Z,976.53
2023-04-07T02:30:06.350Z,976.43
2023-04-07T02:30:34.786Z,976.43
2023-04-07T02:31:06.912Z,976.33
2023-04-07T02:31:38.740Z,976.33
2023-04-07T02:32:10.813Z,976.43
2023-04-07T02:32:27.034Z,976.43
2023-04-07T02:33:10.906Z,976.43
2023-04-07T02:33:42.868Z,976.43
2023-04-07T02:34:14.755Z,976.53
2023-04-07T02:34:46.693Z,976.53
2023-04-07T02:35:19.259Z,976.23
2023-04-07T02:35:50.833Z,976.23
2023-04-07T02:36:22.499Z,976.33
2023-04-07T02:36:54.669Z,976.33
2023-04-07T02:37:26.613Z,976.53
2023-04-07T02:37:58.604Z,976.53
2023-04-07T02:38:30.706Z,976.23
2023-04-07T02:39:03.351Z,976.43
2023-04-07T02:39:34.549Z,976.43
2023-04-07T02:40:06.905Z,976.33
2023-04-07T02:40:38.523Z,976.33
2023-04-07T02:40:54.842Z,976.33
2023-04-07T02:41:38.540Z,976.33
2023-04-07T02:42:10.485Z,976.12
2023-04-07T02:42:42.514Z,976.12
2023-04-07T02:43:14.296Z,976.23
2023-04-07T02:43:46.327Z,976.23
2023-04-07T02:44:18.440Z,976.33
2023-04-07T02:44:50.527Z,976.33
2023-04-07T02:45:22.441Z,976.33
2023-04-07T02:45:54.267Z,976.33
2023-04-07T02:46:10.484Z,976.23
2023-04-07T02:46:54.419Z,976.23
2023-04-07T02:47:26.427Z,976.23
2023-04-07T02:47:58.070Z,976.23
2023-04-07T02:48:30.283Z,976.23
2023-04-07T02:49:02.775Z,976.23
2023-04-07T02:49:34.247Z,976.23
2023-04-07T02:50:06.294Z,976.02
2023-04-07T02:50:38.676Z,976.02
2023-04-07T02:50:54.576Z,976.02
2023-04-07T02:51:25.978Z,976.02
2023-04-07T02:51:42.099Z,976.02
2023-04-07T02:52:13.746Z,976.33
2023-04-07T02:52:45.906Z,976.33
2023-04-07T02:53:18.057Z,976.02
2023-04-07T02:53:50.056Z,976.02
2023-04-07T02:54:21.768Z,976.33
2023-04-07T02:54:53.905Z,976.33
2023-04-07T02:55:26.091Z,976.02
2023-04-07T02:55:57.998Z,976.02
2023-04-07T02:56:29.848Z,976.23
2023-04-07T02:57:02.053Z,976.33
2023-04-07T02:57:33.950Z,976.33
2023-04-07T02:58:05.794Z,976.12
2023-04-07T02:58:38.037Z,976.12
2023-04-07T02:58:53.896Z,976.12
2023-04-07T02:59:37.597Z,976.12
2023-04-07T03:00:11.114Z,976.12
2023-04-07T03:00:41.643Z,976.12
2023-04-07T03:01:13.420Z,976.02
2023-04-07T03:01:45.755Z,976.02
2023-04-07T03:02:17.694Z,976.23
2023-04-07T03:02:49.712Z,976.23
2023-04-07T03:03:21.688Z,976.23
2023-04-07T03:03:53.715Z,976.23
2023-04-07T03:04:25.537Z,975.82
2023-04-07T03:04:57.612Z,975.82
2023-04-07T03:05:29.521Z,976.12
2023-04-07T03:06:01.815Z,976.02
2023-04-07T03:06:33.468Z,976.02
2023-04-07T03:07:05.488Z,975.92
2023-04-07T03:07:37.273Z,975.92
2023-04-07T03:08:10.468Z,976.23
2023-04-07T03:08:41.143Z,976.23
2023-04-07T03:09:13.325Z,976.12
2023-04-07T03:09:45.121Z,976.12
2023-04-07T03:10:17.304Z,975.82
2023-04-07T03:10:49.189Z,975.82
2023-04-07T03:11:21.263Z,975.92
2023-04-07T03:11:53.088Z,975.92
2023-04-07T03:12:09.377Z,976.02
2023-04-07T03:12:41.143Z,976.02
2023-04-07T03:13:25.140Z,975.92
2023-04-07T03:13:57.346Z,975.92
2023-04-07T03:14:28.875Z,975.92
2023-04-07T03:15:03.320Z,976.02
2023-04-07T03:15:33.088Z,976.02
2023-04-07T03:16:05.032Z,976.12
2023-04-07T03:16:36.996Z,976.12
2023-04-07T03:16:52.970Z,976.12
2023-04-07T03:17:36.984Z,976.12
2023-04-07T03:17:53.102Z,976.12
2023-04-07T03:18:36.927Z,975.92
2023-04-07T03:19:09.206Z,976.02
2023-04-07T03:19:40.872Z,976.02
2023-04-07T03:19:57.009Z,976.02
2023-04-07T03:20:41.166Z,975.82
2023-04-07T03:21:12.842Z,976.02
2023-04-07T03:21:44.886Z,976.02
2023-04-07T03:22:16.626Z,976.02
2023-04-07T03:22:48.766Z,976.02
2023-04-07T03:23:20.711Z,976.02
2023-04-07T03:23:52.816Z,976.02
2023-04-07T03:24:08.690Z,975.92
2023-04-07T03:24:52.656Z,975.92
2023-04-07T03:25:09.089Z,976.02
2023-04-07T03:25:52.654Z,976.02
2023-04-07T03:26:24.690Z,975.92
2023-04-07T03:26:56.355Z,975.92
2023-04-07T03:27:28.389Z,976.02
2023-04-07T03:28:00.656Z,976.02
2023-04-07T03:28:32.462Z,976.02
2023-04-07T03:29:04.850Z,976.02
2023-04-07T03:29:36.358Z,976.02
2023-04-07T03:30:09.940Z,976.02
2023-04-07T03:30:40.731Z,976.02
2023-04-07T03:31:12.254Z,975.92
2023-04-07T03:31:44.124Z,975.92
2023-04-07T03:32:16.347Z,975.92
2023-04-07T03:32:48.486Z,975.92
2023-04-07T03:33:20.192Z,976.12
2023-04-07T03:33:52.571Z,976.12
2023-04-07T03:34:08.307Z,975.92
2023-04-07T03:34:40.303Z,975.92
2023-04-07T03:35:25.611Z,975.92
2023-04-07T03:35:56.602Z,975.92
2023-04-07T03:36:28.209Z,976.12
2023-04-07T03:37:00.264Z,976.12
2023-04-07T03:37:32.086Z,976.02
2023-04-07T03:38:04.495Z,975.92
2023-04-07T03:38:36.004Z,975.92
2023-04-07T03:38:52.167Z,975.92
2023-04-07T03:39:35.992Z,975.92
2023-04-07T03:40:08.314Z,975.92
2023-04-07T03:40:40.043Z,975.92
2023-04-07T03:41:11.832Z,976.02
2023-04-07T03:41:43.850Z,976.02
2023-04-07T03:42:15.976Z,975.92
2023-04-07T03:42:47.654Z,975.92
2023-04-07T03:43:19.871Z,975.72
2023-04-07T03:43:52.123Z,975.72
2023-04-07T03:44:23.805Z,976.02
2023-04-07T03:44:55.701Z,976.02
2023-04-07T03:45:28.208Z,975.82
2023-04-07T03:45:59.887Z,975.82
2023-04-07T03:46:31.915Z,975.82
2023-04-07T03:47:04.205Z,975.92
2023-04-07T03:47:35.689Z,975.92
2023-04-07T03:47:51.843Z,975.92
2023-04-07T03:48:23.546Z,975.92
2023-04-07T03:48:39.822Z,975.92
2023-04-07T03:49:11.389Z,975.92
2023-04-07T03:49:43.671Z,975.92
2023-04-07T03:50:15.932Z,975.72
2023-04-07T03:50:47.683Z,975.72
2023-04-07T03:51:19.840Z,975.82
2023-04-07T03:51:51.549Z,975.82
2023-04-07T03:52:07.567Z,975.72
2023-04-07T03:52:39.634Z,975.72
2023-04-07T03:53:23.535Z,976.12
2023-04-07T03:53:55.327Z,976.12
2023-04-07T03:54:27.361Z,975.82
2023-04-07T03:54:59.519Z,975.82
2023-04-07T03:55:31.680Z,975.72
2023-04-07T03:56:04.123Z,975.82
2023-04-07T03:56:35.180Z,975.82
2023-04-07T03:56:51.433Z,975.82
2023-04-07T03:57:35.135Z,975.72
2023-04-07T03:58:07.386Z,975.72
2023-04-07T03:58:39.612Z,975.72
2023-04-07T03:59:11.184Z,975.92
2023-04-07T03:59:43.209Z,975.92
2023-04-07T04:00:16.140Z,975.82
2023-04-07T04:00:47.112Z,975.82
2023-04-07T04:01:19.295Z,975.72
2023-04-07T04:01:51.140Z,975.72
2023-04-07T04:02:23.286Z,975.52
2023-04-07T04:02:55.212Z,975.52
2023-04-07T04:03:26.989Z,975.82
2023-04-07T04:03:59.604Z,975.82
2023-04-07T04:04:31.266Z,975.52
2023-04-07T04:05:04.665Z,975.92
2023-04-07T04:05:34.948Z,975.92
2023-04-07T04:06:06.950Z,975.82
2023-04-07T04:06:39.138Z,975.82
2023-04-07T04:07:10.991Z,975.92
2023-04-07T04:07:42.881Z,975.92
2023-04-07T04:08:14.753Z,975.82
2023-04-07T04:08:46.991Z,975.82
2023-04-07T04:09:19.035Z,975.72
2023-04-07T04:09:50.829Z,975.72
2023-04-07T04:10:23.116Z,975.62
2023-04-07T04:10:54.796Z,975.62
2023-04-07T04:11:26.534Z,975.72
2023-04-07T04:11:58.664Z,975.72
2023-04-07T04:12:30.818Z,975.82
2023-04-07T04:13:03.544Z,975.52
2023-04-07T04:13:34.524Z,975.52
2023-04-07T04:14:06.509Z,975.72
2023-04-07T04:14:38.572Z,975.72
2023-04-07T04:15:12.358Z,975.62
2023-04-07T04:15:42.567Z,975.62
2023-04-07T04:16:15.346Z,975.41
2023-04-07T04:16:46.573Z,975.41
2023-04-07T04:17:18.700Z,975.52
2023-04-07T04:17:50.674Z,975.52
2023-04-07T04:18:06.416Z,975.62
2023-04-07T04:18:50.510Z,975.62
2023-04-07T04:19:06.396Z,975.52
2023-04-07T04:19:50.385Z,975.52
2023-04-07T04:20:22.703Z,975.52
2023-04-07T04:20:54.227Z,975.52
2023-04-07T04:21:26.225Z,975.72
2023-04-07T04:21:58.277Z,975.72
2023-04-07T04:22:30.505Z,975.62
2023-04-07T04:23:02.855Z,975.62
2023-04-07T04:23:34.233Z,975.62
2023-04-07T04:24:06.094Z,975.62
2023-04-07T04:24:38.171Z,975.62
2023-04-07T04:25:12.146Z,975.72
2023-04-07T04:25:42.129Z,975.72
2023-04-07T04:26:14.102Z,975.72
2023-04-07T04:26:46.013Z,975.72
2023-04-07T04:27:18.051Z,975.62
2023-04-07T04:27:34.120Z,975.62
2023-04-07T04:28:17.941Z,975.62
2023-04-07T04:28:50.248Z,975.62
2023-04-07T04:29:21.974Z,975.52
2023-04-07T04:29:38.028Z,975.52
2023-04-07T04:30:22.315Z,975.72
2023-04-07T04:30:38.044Z,975.72
2023-04-07T04:31:21.958Z,975.62
2023-04-07T04:31:53.833Z,975.62
2023-04-07T04:32:25.872Z,975.52
2023-04-07T04:32:57.817Z,975.52
2023-04-07T04:33:29.732Z,975.62
2023-04-07T04:34:02.631Z,975.52
2023-04-07T04:34:33.636Z,975.52
2023-04-07T04:34:49.992Z,975.52
2023-04-07T04:35:34.037Z,975.72
2023-04-07T04:36:05.730Z,975.52
2023-04-07T04:36:38.440Z,975.52
2023-04-07T04:37:09.592Z,975.62
2023-04-07T04:37:41.645Z,975.62
2023-04-07T04:38:13.588Z,975.41
2023-04-07T04:38:45.679Z,975.41
2023-04-07T04:39:17.687Z,975.72
2023-04-07T04:39:49.659Z,975.72
2023-04-07T04:40:21.733Z,975.52
2023-04-07T04:40:53.548Z,975.52
2023-04-07T04:41:25.365Z,975.52
2023-04-07T04:41:57.318Z,975.52
2023-04-07T04:42:29.650Z,975.52
2023-04-07T04:43:01.860Z,975.52
2023-04-07T04:43:33.188Z,975.52
2023-04-07T04:44:05.547Z,975.52
2023-04-07T04:44:37.319Z,975.52
2023-04-07T04:45:12.834Z,975.72
2023-04-07T04:45:41.092Z,975.72
2023-04-07T04:46:13.299Z,975.62
2023-04-07T04:46:45.172Z,975.62
2023-04-07T04:47:17.287Z,975.62
2023-04-07T04:47:49.350Z,975.62
2023-04-07T04:48:05.568Z,975.72
2023-04-07T04:48:37.058Z,975.72
2023-04-07T04:49:21.178Z,975.41
2023-04-07T04:49:53.131Z,975.41
2023-04-07T04:50:25.274Z,975.62
2023-04-07T04:50:57.018Z,975.62
2023-04-07T04:51:29.208Z,975.62
2023-04-07T04:52:01.195Z,975.31
2023-04-07T04:52:32.906Z,975.31
2023-04-07T04:52:49.294Z,975.31
2023-04-07T04:53:32.809Z,975.62
2023-04-07T04:54:05.109Z,975.62
2023-04-07T04:54:36.988Z,975.62
2023-04-07T04:55:09.057Z,975.72
2023-04-07T04:55:40.844Z,975.72
2023-04-07T04:56:12.835Z,975.62
2023-04-07T04:56:44.930Z,975.62
2023-04-07T04:57:16.724Z,975.52
2023-04-07T04:57:48.795Z,975.52
2023-04-07T04:58:20.792Z,975.52
2023-04-07T04:58:52.838Z,975.52
2023-04-07T04:59:24.558Z,975.82
2023-04-07T04:59:56.572Z,975.82
2023-04-07T05:00:29.234Z,975.72
2023-04-07T05:01:00.916Z,975.72
2023-04-07T05:01:33.635Z,975.52
2023-04-07T05:01:49.017Z,975.52
2023-04-07T05:02:20.701Z,975.52
2023-04-07T05:02:36.621Z,975.52
2023-04-07T05:03:09.004Z,975.82
2023-04-07T05:03:40.899Z,975.82
2023-04-07T05:04:12.847Z,975.72
2023-04-07T05:04:44.529Z,975.72
2023-04-07T05:05:17.040Z,975.62
2023-04-07T05:05:48.490Z,975.62
2023-04-07T05:06:04.848Z,975.62
2023-04-07T05:06:36.164Z,975.62
2023-04-07T05:07:20.627Z,975.62
2023-04-07T05:07:52.582Z,975.62
2023-04-07T05:08:24.359Z,975.52
2023-04-07T05:08:56.248Z,975.52
2023-04-07T05:09:28.547Z,975.72
2023-04-07T05:10:01.133Z,975.72
2023-04-07T05:10:32.452Z,975.72
2023-04-07T05:11:04.836Z,975.82
2023-04-07T05:11:36.308Z,975.82
2023-04-07T05:12:08.515Z,975.72
2023-04-07T05:12:40.412Z,975.72
2023-04-07T05:13:12.200Z,975.82
2023-04-07T05:13:44.311Z,975.82
2023-04-07T05:14:16.327Z,975.52
2023-04-07T05:14:48.116Z,975.52
2023-04-07T05:15:06.541Z,975.41
2023-04-07T05:15:48.318Z,975.41
2023-04-07T05:16:20.453Z,975.72
2023-04-07T05:16:52.133Z,975.72
2023-04-07T05:17:24.016Z,975.52
2023-04-07T05:17:56.305Z,975.52
2023-04-07T05:18:28.135Z,975.52
2023-04-07T05:19:00.134Z,975.52
2023-04-07T05:19:32.058Z,975.62
2023-04-07T05:20:04.770Z,975.72
2023-04-07T05:20:36.030Z,975.72
2023-04-07T05:21:08.025Z,975.62
2023-04-07T05:21:39.954Z,975.62
2023-04-07T05:22:11.871Z,975.72
2023-04-07T05:22:43.858Z,975.72
2023-04-07T05:23:15.863Z,975.52
2023-04-07T05:23:47.872Z,975.52
2023-04-07T05:24:04.297Z,975.72
2023-04-07T05:24:35.667Z,975.72
2023-04-07T05:25:20.362Z,975.72
2023-04-07T05:25:51.852Z,975.72
2023-04-07T05:26:23.776Z,975.62
2023-04-07T05:26:55.739Z,975.62
2023-04-07T05:27:27.713Z,975.72
2023-04-07T05:28:00.024Z,975.72
2023-04-07T05:28:31.765Z,975.62
2023-04-07T05:29:04.168Z,975.62
2023-04-07T05:29:35.708Z,975.62
2023-04-07T05:30:09.567Z,975.52
2023-04-07T05:30:39.534Z,975.52
2023-04-07T05:31:11.622Z,975.72
2023-04-07T05:31:43.648Z,975.72
2023-04-07T05:32:15.694Z,975.82
2023-04-07T05:32:47.651Z,975.82
2023-04-07T05:33:04.397Z,975.72
2023-04-07T05:33:47.680Z,975.72
2023-04-07T05:34:19.576Z,975.62
2023-04-07T05:34:51.353Z,975.62
2023-04-07T05:35:23.578Z,975.72
2023-04-07T05:35:55.447Z,975.72
2023-04-07T05:36:27.358Z,975.92
2023-04-07T05:36:59.463Z,975.92
2023-04-07T05:37:31.447Z,975.52
2023-04-07T05:37:47.480Z,975.52
2023-04-07T05:38:19.409Z,975.72
2023-04-07T05:38:35.230Z,975.72
2023-04-07T05:39:07.217Z,975.82
2023-04-07T05:39:39.202Z,975.82
2023-04-07T05:40:11.639Z,975.52
2023-04-07T05:40:43.151Z,975.52
2023-04-07T05:41:15.151Z,975.82
2023-04-07T05:41:47.040Z,975.82
2023-04-07T05:42:03.872Z,975.82
2023-04-07T05:42:35.018Z,975.82
2023-04-07T05:43:19.367Z,975.62
2023-04-07T05:43:51.096Z,975.62
2023-04-07T05:44:22.919Z,975.82
2023-04-07T05:44:54.969Z,975.82
2023-04-07T05:45:27.547Z,975.72
2023-04-07T05:45:59.562Z,975.72
2023-04-07T05:46:30.870Z,975.72
2023-04-07T05:46:47.210Z,975.72
2023-04-07T05:47:30.738Z,975.62
2023-04-07T05:48:03.954Z,975.52
2023-04-07T05:48:34.748Z,975.52
2023-04-07T05:49:18.836Z,975.62
2023-04-07T05:49:38.781Z,975.62
2023-04-07T05:50:10.956Z,975.62
2023-04-07T05:50:42.742Z,975.62
2023-04-07T05:51:14.590Z,975.62
2023-04-07T05:51:48.336Z,975.62
2023-04-07T05:52:18.636Z,975.62
2023-04-07T05:52:50.774Z,975.62
2023-04-07T05:53:22.642Z,975.52
2023-04-07T05:53:54.569Z,975.52
2023-04-07T05:54:26.603Z,975.62
2023-04-07T05:54:58.556Z,975.62
2023-04-07T05:55:30.837Z,975.62
2023-04-07T05:55:48.057Z,975.62
2023-04-07T05:56:18.442Z,975.52
2023-04-07T05:56:34.539Z,975.52
2023-04-07T05:57:06.572Z,975.82
2023-04-07T05:57:38.499Z,975.82
2023-04-07T05:58:10.654Z,975.82
2023-04-07T05:58:42.481Z,975.82
2023-04-07T05:59:14.431Z,975.52
2023-04-07T05:59:46.296Z,975.52
2023-04-07T06:00:06.726Z,975.82
2023-04-07T06:00:34.147Z,975.82
2023-04-07T06:01:18.396Z,975.52
2023-04-07T06:01:50.534Z,975.52
2023-04-07T06:02:22.362Z,975.72
2023-04-07T06:02:54.545Z,975.72
2023-04-07T06:03:26.250Z,975.82
2023-04-07T06:03:58.219Z,975.82
2023-04-07T06:04:30.337Z,975.72
2023-04-07T06:04:46.256Z,975.72
2023-04-07T06:05:30.618Z,975.72
2023-04-07T06:06:02.945Z,975.72
2023-04-07T06:06:34.137Z,975.72
2023-04-07T06:07:06.045Z,975.72
2023-04-07T06:07:38.171Z,975.72
2023-04-07T06:08:10.125Z,975.72
2023-04-07T06:08:42.017Z,975.72
2023-04-07T06:09:13.896Z,975.72
2023-04-07T06:09:45.909Z,975.72
2023-04-07T06:10:18.296Z,975.82
2023-04-07T06:10:50.248Z,975.82
2023-04-07T06:11:21.731Z,975.92
2023-04-07T06:11:53.931Z,975.92
2023-04-07T06:12:25.866Z,975.72
2023-04-07T06:12:57.843Z,975.72
2023-04-07T06:13:29.852Z,975.82
2023-04-07T06:13:45.880Z,975.82
2023-04-07T06:14:17.669Z,975.82
2023-04-07T06:14:33.761Z,975.82
2023-04-07T06:15:06.875Z,975.82
2023-04-07T06:15:37.804Z,975.82
2023-04-07T06:16:09.897Z,975.72
2023-04-07T06:16:41.700Z,975.72
2023-04-07T06:17:13.628Z,975.72
2023-04-07T06:17:45.689Z,975.72
2023-04-07T06:18:02.340Z,975.82
2023-04-07T06:18:33.577Z,975.82
2023-04-07T06:19:17.658Z,975.82
2023-04-07T06:19:49.599Z,975.82
2023-04-07T06:20:23.310Z,975.82
2023-04-07T06:20:53.518Z,975.82
2023-04-07T06:21:25.447Z,976.02
2023-04-07T06:21:57.494Z,976.02
2023-04-07T06:22:29.420Z,975.72
2023-04-07T06:23:01.898Z,975.72
2023-04-07T06:23:33.586Z,975.72
2023-04-07T06:24:05.521Z,975.62
2023-04-07T06:24:37.342Z,975.62
2023-04-07T06:25:09.861Z,975.92
2023-04-07T06:25:41.322Z,975.92
2023-04-07T06:26:13.223Z,975.82
2023-04-07T06:26:45.199Z,975.82
2023-04-07T06:27:01.860Z,975.92
2023-04-07T06:27:45.252Z,975.92
2023-04-07T06:28:17.192Z,975.72
2023-04-07T06:28:48.933Z,975.72
2023-04-07T06:29:21.006Z,975.92
2023-04-07T06:29:53.084Z,975.92
2023-04-07T06:30:25.462Z,975.72
2023-04-07T06:30:58.271Z,975.72
2023-04-07T06:31:28.937Z,976.02